createdAt,value
2022-09-14T00:01:23.608Z,99177.84
2022-09-14T00:02:04.923Z,99179.54
2022-09-14T00:03:09.307Z,99173.33
2022-09-14T00:04:16.832Z,99184.09
2022-09-14T00:05:20.818Z,99184.09
2022-09-14T00:06:27.251Z,99175.36
2022-09-14T00:07:31.184Z,99175.36
2022-09-14T00:08:36.044Z,99177.84
2022-09-14T00:09:40.050Z,99176.02
2022-09-14T00:10:46.781Z,99177.84
2022-09-14T00:11:51.832Z,99177.84
2022-09-14T00:12:56.021Z,99173.33
2022-09-14T00:14:02.302Z,99173.33
2022-09-14T00:15:06.558Z,99182.39
2022-09-14T00:16:22.896Z,99173.33
2022-09-14T00:17:27.021Z,99178.70
2022-09-14T00:18:31.465Z,99169.98
2022-09-14T00:19:39.666Z,99172.67
2022-09-14T00:20:43.809Z,99176.39
2022-09-14T00:21:53.240Z,99175.36
2022-09-14T00:22:57.190Z,99175.36
2022-09-14T00:24:01.266Z,99169.98
2022-09-14T00:25:06.793Z,99169.98
2022-09-14T00:26:14.423Z,99166.27
2022-09-14T00:27:18.394Z,99167.09
2022-09-14T00:28:25.564Z,99167.09
2022-09-14T00:29:28.356Z,99166.27
2022-09-14T00:30:32.697Z,99125.52
2022-09-14T00:31:39.328Z,99125.52
2022-09-14T00:32:43.302Z,99157.56
2022-09-14T00:33:48.630Z,99164.60
2022-09-14T00:34:52.649Z,99164.60
2022-09-14T00:35:56.601Z,99155.87
2022-09-14T00:37:00.666Z,99167.30
2022-09-14T00:38:04.628Z,99167.30
2022-09-14T00:39:09.715Z,99164.77
2022-09-14T00:40:15.096Z,99164.77
2022-09-14T00:41:22.724Z,99159.39
2022-09-14T00:42:27.000Z,99166.63
2022-09-14T00:43:31.064Z,99163.11
2022-09-14T00:44:38.004Z,99163.28
2022-09-14T00:45:45.041Z,99164.14
2022-09-14T00:46:57.945Z,99159.77
2022-09-14T00:48:00.832Z,99173.04
2022-09-14T00:49:10.602Z,99173.04
2022-09-14T00:50:15.877Z,99161.63
2022-09-14T00:51:22.608Z,99161.63
2022-09-14T00:52:29.919Z,99167.00
2022-09-14T00:53:34.140Z,99167.00
2022-09-14T00:54:41.097Z,99157.28
2022-09-14T00:55:45.892Z,99156.25
2022-09-14T00:56:50.463Z,99162.45
2022-09-14T00:57:57.492Z,99159.97
2022-09-14T00:59:04.497Z,99162.45
2022-09-14T01:00:10.575Z,99165.34
2022-09-14T01:01:14.992Z,99158.28
2022-09-14T01:02:21.588Z,99158.28
2022-09-14T01:03:25.896Z,99160.14
2022-09-14T01:04:30.264Z,99154.76
2022-09-14T01:05:58.231Z,99160.30
2022-09-14T01:07:08.598Z,99157.62
2022-09-14T01:08:24.145Z,99155.13
2022-09-14T01:09:45.909Z,99156.16
2022-09-14T01:10:55.370Z,99158.19
2022-09-14T01:12:17.099Z,99163.56
2022-09-14T01:13:23.985Z,99148.26
2022-09-14T01:14:39.850Z,99151.98
2022-09-14T01:15:52.539Z,99153.80
2022-09-14T01:17:08.696Z,99150.48
2022-09-14T01:18:30.317Z,99150.48
2022-09-14T01:19:43.217Z,99153.34
2022-09-14T01:21:02.192Z,99153.34
2022-09-14T01:22:12.144Z,99149.83
2022-09-14T01:23:38.400Z,99156.03
2022-09-14T01:24:50.844Z,99151.02
2022-09-14T01:26:18.627Z,99159.92
2022-09-14T01:27:40.478Z,99152.88
2022-09-14T01:29:01.498Z,99154.74
2022-09-14T01:30:11.037Z,99151.19
2022-09-14T01:31:18.030Z,99147.67
2022-09-14T01:32:27.990Z,99149.70
2022-09-14T01:33:37.613Z,99153.05
2022-09-14T01:34:53.080Z,99149.36
2022-09-14T01:36:00.361Z,99149.36
2022-09-14T01:37:13.155Z,99149.36
2022-09-14T01:38:26.307Z,99153.55
2022-09-14T01:39:32.800Z,99154.37
2022-09-14T01:40:43.155Z,99154.17
2022-09-14T01:41:49.738Z,99147.80
2022-09-14T01:43:02.331Z,99154.00
2022-09-14T01:44:24.126Z,99138.88
2022-09-14T01:45:30.892Z,99138.70
2022-09-14T01:46:38.605Z,99145.94
2022-09-14T01:47:45.558Z,99137.88
2022-09-14T01:48:55.451Z,99142.42
2022-09-14T01:50:05.392Z,99140.56
2022-09-14T01:51:12.363Z,99135.19
2022-09-14T01:52:19.332Z,99140.56
2022-09-14T01:53:26.307Z,99136.19
2022-09-14T01:54:33.266Z,99136.19
2022-09-14T01:55:43.070Z,99136.84
2022-09-14T01:56:55.910Z,99137.51
2022-09-14T01:58:12.405Z,99142.88
2022-09-14T01:59:19.337Z,99142.88
2022-09-14T02:00:24.896Z,99135.48
2022-09-14T02:01:41.024Z,99135.48
2022-09-14T02:02:48.335Z,99136.48
2022-09-14T02:03:55.447Z,99136.48
2022-09-14T02:05:22.959Z,99138.80
2022-09-14T02:06:30.512Z,99139.66
2022-09-14T02:07:36.697Z,99140.48
2022-09-14T02:08:40.953Z,99135.11
2022-09-14T02:09:46.182Z,99137.80
2022-09-14T02:10:50.363Z,99132.42
2022-09-14T02:11:55.635Z,99130.39
2022-09-14T02:12:59.812Z,99125.02
2022-09-14T02:14:04.421Z,99131.02
2022-09-14T02:15:11.358Z,99126.67
2022-09-14T02:16:16.161Z,99126.67
2022-09-14T02:17:20.778Z,99123.81
2022-09-14T02:18:25.096Z,99121.95
2022-09-14T02:19:32.083Z,99119.44
2022-09-14T02:20:41.878Z,99119.44
2022-09-14T02:21:46.227Z,99122.95
2022-09-14T02:22:52.299Z,99114.89
2022-09-14T02:23:58.287Z,99113.23
2022-09-14T02:25:03.555Z,99114.89
2022-09-14T02:26:08.554Z,99114.89
2022-09-14T02:27:12.575Z,99114.89
2022-09-14T02:28:16.831Z,99106.82
2022-09-14T02:29:20.820Z,99106.82
2022-09-14T02:30:28.082Z,99109.52
2022-09-14T02:31:52.915Z,99104.13
2022-09-14T02:33:09.978Z,99105.00
2022-09-14T02:34:37.623Z,99109.52
2022-09-14T02:35:44.569Z,99112.20
2022-09-14T02:36:57.152Z,99107.02
2022-09-14T02:38:07.060Z,99107.02
2022-09-14T02:39:13.998Z,99106.82
2022-09-14T02:40:30.494Z,99113.06
2022-09-14T02:41:40.559Z,99104.13
2022-09-14T02:43:04.095Z,99107.86
2022-09-14T02:44:13.750Z,99107.86
2022-09-14T02:45:23.483Z,99107.86
2022-09-14T02:46:45.572Z,99107.02
2022-09-14T02:48:07.319Z,99103.51
2022-09-14T02:49:17.319Z,99113.23
2022-09-14T02:50:42.492Z,99104.51
2022-09-14T02:52:04.408Z,99104.51
2022-09-14T02:53:16.830Z,99104.51
2022-09-14T02:54:26.332Z,99108.22
2022-09-14T02:55:33.296Z,99108.22
2022-09-14T02:56:37.918Z,99104.70
2022-09-14T02:58:04.493Z,99109.05
2022-09-14T02:59:08.699Z,99115.26
2022-09-14T03:00:14.583Z,99115.26
2022-09-14T03:01:21.258Z,98917.30
2022-09-14T03:02:25.520Z,99109.88
2022-09-14T03:03:33.502Z,99112.57
2022-09-14T03:04:35.369Z,99107.20
2022-09-14T03:05:40.270Z,99109.05
2022-09-14T03:06:44.311Z,99103.67
2022-09-14T03:07:48.247Z,99099.13
2022-09-14T03:08:52.296Z,99099.13
2022-09-14T03:09:56.324Z,99100.82
2022-09-14T03:11:00.434Z,99101.65
2022-09-14T03:12:04.919Z,99107.86
2022-09-14T03:13:08.950Z,99102.48
2022-09-14T03:14:13.235Z,99102.48
2022-09-14T03:15:17.260Z,99096.27
2022-09-14T03:16:22.256Z,99097.93
2022-09-14T03:17:26.240Z,99099.62
2022-09-14T03:18:30.689Z,99093.37
2022-09-14T03:19:34.707Z,99104.13
2022-09-14T03:20:38.960Z,99101.45
2022-09-14T03:21:42.925Z,99089.86
2022-09-14T03:22:47.598Z,99095.44
2022-09-14T03:23:52.971Z,99095.44
2022-09-14T03:24:56.945Z,99094.23
2022-09-14T03:26:00.832Z,99088.00
2022-09-14T03:27:04.928Z,99082.62
2022-09-14T03:28:11.122Z,99088.00
2022-09-14T03:29:15.147Z,99082.83
2022-09-14T03:30:20.544Z,99082.00
2022-09-14T03:31:25.909Z,99088.20
2022-09-14T03:32:29.866Z,99044.62
2022-09-14T03:33:34.273Z,99085.52
2022-09-14T03:34:38.262Z,99081.14
2022-09-14T03:35:42.200Z,99081.14
2022-09-14T03:36:46.358Z,99083.00
2022-09-14T03:37:50.363Z,99084.69
2022-09-14T03:38:56.897Z,99084.69
2022-09-14T03:40:01.101Z,99090.89
2022-09-14T03:41:12.133Z,99085.52
2022-09-14T03:42:17.699Z,99079.31
2022-09-14T03:43:21.796Z,99083.83
2022-09-14T03:44:27.321Z,99083.00
2022-09-14T03:45:31.264Z,99089.41
2022-09-14T03:46:35.644Z,99089.41
2022-09-14T03:47:40.675Z,99091.06
2022-09-14T03:48:45.284Z,99093.75
2022-09-14T03:49:49.386Z,99093.75
2022-09-14T03:50:53.317Z,99093.37
2022-09-14T03:51:59.778Z,99095.90
2022-09-14T03:53:06.172Z,99095.90
2022-09-14T03:54:09.236Z,99095.07
2022-09-14T03:55:13.426Z,99100.08
2022-09-14T03:56:23.147Z,99097.19
2022-09-14T03:57:27.339Z,99102.56
2022-09-14T03:58:40.449Z,99102.56
2022-09-14T03:59:48.276Z,99104.25
2022-09-14T04:00:52.805Z,99104.25
2022-09-14T04:02:03.188Z,99106.39
2022-09-14T04:03:07.290Z,99108.05
2022-09-14T04:04:11.402Z,99108.05
2022-09-14T04:05:21.918Z,99109.70
2022-09-14T04:06:21.455Z,99107.67
2022-09-14T04:07:36.353Z,99114.72
2022-09-14T04:08:39.208Z,99114.72
2022-09-14T04:09:47.691Z,99114.72
2022-09-14T04:10:52.065Z,99123.44
2022-09-14T04:11:55.992Z,99123.44
2022-09-14T04:12:59.910Z,99116.41
2022-09-14T04:14:05.293Z,99121.78
2022-09-14T04:15:09.902Z,99126.78
2022-09-14T04:16:15.939Z,99123.06
2022-09-14T04:17:19.912Z,99123.06
2022-09-14T04:18:23.983Z,99120.20
2022-09-14T04:19:27.966Z,99116.69
2022-09-14T04:20:33.533Z,99121.69
2022-09-14T04:21:37.759Z,99131.42
2022-09-14T04:22:41.680Z,99123.17
2022-09-14T04:24:10.499Z,99124.01
2022-09-14T04:24:51.502Z,99129.02
2022-09-14T04:25:56.087Z,99126.98
2022-09-14T04:27:00.346Z,99125.95
2022-09-14T04:28:19.548Z,99126.63
2022-09-14T04:29:11.545Z,99126.63
2022-09-14T04:30:16.218Z,99125.26
2022-09-14T04:31:20.266Z,99125.26
2022-09-14T04:33:40.634Z,99131.65
2022-09-14T04:34:44.484Z,99133.58
2022-09-14T04:36:00.000Z,99133.13
2022-09-14T04:37:03.994Z,99134.30
2022-09-14T04:38:08.939Z,99135.89
2022-09-14T04:39:13.430Z,99143.86
2022-09-14T04:40:19.088Z,99143.86
2022-09-14T04:41:25.820Z,99137.03
2022-09-14T04:42:30.479Z,99137.03
2022-09-14T04:43:34.515Z,99135.70
2022-09-14T04:44:38.498Z,99133.45
2022-09-14T04:45:42.433Z,99133.89
2022-09-14T04:46:47.260Z,99131.84
2022-09-14T04:47:51.329Z,99134.37
2022-09-14T04:48:55.355Z,99132.11
2022-09-14T04:49:59.276Z,99125.51
2022-09-14T04:51:17.487Z,99126.98
2022-09-14T04:52:21.399Z,99119.16
2022-09-14T04:53:25.329Z,99119.64
2022-09-14T04:54:29.310Z,99130.94
2022-09-14T04:55:33.388Z,99132.02
2022-09-14T04:56:37.877Z,99132.02
2022-09-14T04:57:41.745Z,99126.55
2022-09-14T04:58:51.687Z,99123.58
2022-09-14T04:59:54.354Z,99124.96
2022-09-14T05:01:11.698Z,99120.50
2022-09-14T05:02:15.724Z,99119.33
2022-09-14T05:03:19.698Z,99123.98
2022-09-14T05:04:23.912Z,99124.84
2022-09-14T05:05:27.877Z,99120.94
2022-09-14T05:06:34.035Z,99117.81
2022-09-14T05:07:38.061Z,99117.81
2022-09-14T05:08:42.510Z,99124.07
2022-09-14T05:09:46.508Z,99129.69
2022-09-14T05:10:50.539Z,99127.84
2022-09-14T05:11:54.592Z,99128.23
2022-09-14T05:12:58.592Z,99128.23
2022-09-14T05:14:03.529Z,99129.27
2022-09-14T05:15:08.361Z,99129.27
2022-09-14T05:16:19.051Z,99124.90
2022-09-14T05:17:23.110Z,99124.90
2022-09-14T05:18:28.098Z,99132.56
2022-09-14T05:19:32.147Z,99132.56
2022-09-14T05:20:36.717Z,99131.94
2022-09-14T05:21:42.141Z,99131.94
2022-09-14T05:22:47.689Z,99129.78
2022-09-14T05:23:57.516Z,99137.23
2022-09-14T05:25:01.527Z,99140.13
2022-09-14T05:26:06.673Z,99140.13
2022-09-14T05:27:10.579Z,99142.60
2022-09-14T05:28:14.504Z,99141.97
2022-09-14T05:29:19.509Z,99141.72
2022-09-14T05:30:23.774Z,99143.35
2022-09-14T05:31:29.148Z,99143.35
2022-09-14T05:32:33.150Z,99147.03
2022-09-14T05:33:37.429Z,99148.22
2022-09-14T05:34:41.357Z,99150.23
2022-09-14T05:35:46.046Z,99147.69
2022-09-14T05:36:50.864Z,99147.69
2022-09-14T05:37:54.802Z,99154.44
2022-09-14T05:38:58.800Z,99151.38
2022-09-14T05:40:03.144Z,99151.38
2022-09-14T05:41:09.768Z,99160.41
2022-09-14T05:42:14.746Z,99165.04
2022-09-14T05:43:18.801Z,99165.04
2022-09-14T05:44:22.871Z,99160.30
2022-09-14T05:45:26.884Z,99159.48
2022-09-14T05:46:32.547Z,99162.82
2022-09-14T05:47:39.168Z,99162.82
2022-09-14T05:48:42.556Z,99158.03
2022-09-14T05:49:46.494Z,99164.33
2022-09-14T05:50:52.134Z,99162.91
2022-09-14T05:51:56.093Z,99149.80
2022-09-14T05:53:00.381Z,99151.88
2022-09-14T05:54:04.456Z,99151.88
2022-09-14T05:55:08.631Z,99157.30
2022-09-14T05:56:14.442Z,99147.91
2022-09-14T05:57:18.404Z,99150.58
2022-09-14T05:58:22.366Z,99150.14
2022-09-14T05:59:26.284Z,99150.92
2022-09-14T06:00:30.750Z,99150.23
2022-09-14T06:01:34.841Z,99159.81
2022-09-14T06:02:41.408Z,99159.81
2022-09-14T06:03:45.331Z,99151.30
2022-09-14T06:04:49.496Z,99153.88
2022-09-14T06:05:54.962Z,99152.66
2022-09-14T06:07:17.374Z,99147.48
2022-09-14T06:08:04.579Z,99151.02
2022-09-14T06:09:08.621Z,99153.56
2022-09-14T06:10:14.161Z,99149.41
2022-09-14T06:11:21.048Z,99149.41
2022-09-14T06:12:25.120Z,99151.48
2022-09-14T06:13:29.152Z,99149.87
2022-09-14T06:14:33.067Z,99148.21
2022-09-14T06:15:37.067Z,99150.72
2022-09-14T06:16:41.066Z,99153.22
2022-09-14T06:17:45.085Z,99152.39
2022-09-14T06:18:53.573Z,99156.16
2022-09-14T06:20:01.030Z,99157.41
2022-09-14T06:21:04.511Z,99159.05
2022-09-14T06:22:08.499Z,99161.56
2022-09-14T06:23:12.513Z,99161.56
2022-09-14T06:24:16.512Z,99160.72
2022-09-14T06:25:20.449Z,99158.21
2022-09-14T06:26:25.963Z,99152.38
2022-09-14T06:27:29.932Z,99156.13
2022-09-14T06:28:35.316Z,99157.36
2022-09-14T06:29:39.251Z,99152.14
2022-09-14T06:30:44.525Z,99152.14
2022-09-14T06:31:50.036Z,99160.67
2022-09-14T06:32:55.525Z,99156.91
2022-09-14T06:33:59.465Z,99155.22
2022-09-14T06:35:03.556Z,99156.04
2022-09-14T06:36:10.653Z,99157.26
2022-09-14T06:37:14.595Z,99148.30
2022-09-14T06:38:18.520Z,99150.97
2022-09-14T06:39:22.534Z,99157.41
2022-09-14T06:40:27.086Z,99158.45
2022-09-14T06:41:31.404Z,99160.11
2022-09-14T06:42:35.321Z,99160.30
2022-09-14T06:43:41.587Z,99153.20
2022-09-14T06:44:47.166Z,99156.77
2022-09-14T06:46:02.756Z,99161.31
2022-09-14T06:47:07.016Z,99161.31
2022-09-14T06:48:11.020Z,99146.75
2022-09-14T06:49:16.046Z,99146.75
2022-09-14T06:50:20.298Z,99152.18
2022-09-14T06:51:30.194Z,99146.18
2022-09-14T06:52:35.963Z,99145.55
2022-09-14T06:53:40.079Z,99156.63
2022-09-14T06:54:44.107Z,99156.63
2022-09-14T06:55:50.170Z,99146.03
2022-09-14T06:56:54.378Z,99146.03
2022-09-14T06:58:00.989Z,99151.48
2022-09-14T06:59:06.763Z,99151.48
2022-09-14T07:00:14.534Z,99154.86
2022-09-14T07:01:19.991Z,99157.56
2022-09-14T07:02:24.043Z,99157.56
2022-09-14T07:03:27.988Z,99146.10
2022-09-14T07:04:31.983Z,99149.44
2022-09-14T07:05:35.972Z,99149.44
2022-09-14T07:06:45.654Z,99144.65
2022-09-14T07:07:53.115Z,99143.59
2022-09-14T07:08:57.352Z,99144.02
2022-09-14T07:10:04.858Z,99149.20
2022-09-14T07:11:10.322Z,99146.92
2022-09-14T07:12:14.257Z,99142.34
2022-09-14T07:13:19.414Z,99134.45
2022-09-14T07:14:23.393Z,99138.80
2022-09-14T07:15:27.376Z,99138.80
2022-09-14T07:16:33.639Z,99143.16
2022-09-14T07:17:37.611Z,99143.16
2022-09-14T07:18:42.263Z,99132.95
2022-09-14T07:19:46.177Z,99132.95
2022-09-14T07:20:52.031Z,99136.09
2022-09-14T07:22:00.130Z,99133.16
2022-09-14T07:23:04.134Z,99133.16
2022-09-14T07:24:08.595Z,99130.21
2022-09-14T07:25:14.166Z,99130.21
2022-09-14T07:26:21.637Z,99126.00
2022-09-14T07:27:25.595Z,99126.00
2022-09-14T07:28:29.639Z,99127.40
2022-09-14T07:29:33.848Z,99132.14
2022-09-14T07:30:38.987Z,99125.00
2022-09-14T07:31:45.763Z,99130.58
2022-09-14T07:32:49.721Z,99135.09
2022-09-14T07:33:56.161Z,99124.37
2022-09-14T07:35:00.078Z,99128.50
2022-09-14T07:36:09.355Z,99133.86
2022-09-14T07:37:13.402Z,99133.86
2022-09-14T07:38:27.039Z,99135.23
2022-09-14T07:39:22.980Z,99128.50
2022-09-14T07:40:27.203Z,99128.22
2022-09-14T07:41:32.403Z,99135.47
2022-09-14T07:42:36.479Z,99133.30
2022-09-14T07:43:40.552Z,99133.30
2022-09-14T07:44:44.465Z,99123.42
2022-09-14T07:45:48.441Z,99127.98
2022-09-14T07:46:52.431Z,99125.00
2022-09-14T07:47:57.489Z,99120.31
2022-09-14T07:49:03.120Z,99118.98
2022-09-14T07:50:07.580Z,99124.73
2022-09-14T07:51:12.459Z,99124.73
2022-09-14T07:52:16.372Z,99121.40
2022-09-14T07:53:20.292Z,99121.40
2022-09-14T07:54:24.305Z,99121.55
2022-09-14T07:55:28.243Z,99125.61
2022-09-14T07:56:32.932Z,99120.02
2022-09-14T07:57:55.081Z,99120.02
2022-09-14T07:58:42.969Z,99122.59
2022-09-14T07:59:46.951Z,99120.02
2022-09-14T08:00:51.568Z,99120.02
2022-09-14T08:01:55.652Z,99123.05
2022-09-14T08:03:00.441Z,99123.05
2022-09-14T08:04:05.536Z,99122.59
2022-09-14T08:05:10.132Z,99118.68
2022-09-14T08:06:17.844Z,99118.68
2022-09-14T08:07:21.771Z,99125.30
2022-09-14T08:08:25.709Z,99115.59
2022-09-14T08:09:29.734Z,99119.44
2022-09-14T08:10:37.666Z,99119.44
2022-09-14T08:11:41.626Z,99117.59
2022-09-14T08:12:45.715Z,99117.59
2022-09-14T08:13:55.556Z,99116.19
2022-09-14T08:15:06.649Z,99123.89
2022-09-14T08:16:12.486Z,99123.89
2022-09-14T08:17:16.460Z,99120.77
2022-09-14T08:18:20.457Z,99131.63
2022-09-14T08:19:24.465Z,99123.94
2022-09-14T08:20:29.798Z,99127.42
2022-09-14T08:21:34.396Z,99123.80
2022-09-14T08:22:38.490Z,99118.52
2022-09-14T08:23:43.447Z,99120.11
2022-09-14T08:24:47.372Z,99113.55
2022-09-14T08:25:51.447Z,99113.55
2022-09-14T08:26:55.615Z,99103.27
2022-09-14T08:27:59.516Z,99114.74
2022-09-14T08:29:04.539Z,99104.02
2022-09-14T08:30:09.509Z,99107.11
2022-09-14T08:31:16.274Z,99110.43
2022-09-14T08:32:20.287Z,99101.91
2022-09-14T08:33:24.312Z,99105.67
2022-09-14T08:34:28.451Z,99102.52
2022-09-14T08:35:56.439Z,99098.12
2022-09-14T08:36:40.468Z,99098.12
2022-09-14T08:37:46.425Z,99106.89
2022-09-14T08:38:50.542Z,99097.23
2022-09-14T08:39:54.558Z,99090.58
2022-09-14T08:41:01.513Z,99090.58
2022-09-14T08:42:07.149Z,99089.20
2022-09-14T08:43:13.732Z,99092.67
2022-09-14T08:44:32.679Z,99085.72
2022-09-14T08:45:39.390Z,99089.02
2022-09-14T08:46:49.540Z,99089.02
2022-09-14T08:47:54.715Z,99085.16
2022-09-14T08:49:00.937Z,99075.10
2022-09-14T08:50:19.487Z,99075.10
2022-09-14T08:51:23.865Z,99088.84
2022-09-14T08:52:30.829Z,99082.36
2022-09-14T08:53:37.800Z,99083.65
2022-09-14T08:54:41.816Z,99082.80
2022-09-14T08:55:51.641Z,99082.80
2022-09-14T08:57:19.417Z,99070.13
2022-09-14T08:58:48.313Z,99070.13
2022-09-14T09:00:09.952Z,99073.92
2022-09-14T09:01:44.092Z,99076.78
2022-09-14T09:03:10.842Z,99076.78
2022-09-14T09:04:38.895Z,99074.20
2022-09-14T09:05:49.084Z,99074.20
2022-09-14T09:07:04.964Z,99080.00
2022-09-14T09:08:29.852Z,99083.84
2022-09-14T09:09:48.969Z,99083.04
2022-09-14T09:10:55.447Z,99075.84
2022-09-14T09:12:01.155Z,99074.07
2022-09-14T09:13:08.284Z,99074.07
2022-09-14T09:14:18.635Z,99072.21
2022-09-14T09:15:37.055Z,99087.59
2022-09-14T09:16:41.295Z,99070.44
2022-09-14T09:17:48.352Z,99070.44
2022-09-14T09:19:01.210Z,99067.02
2022-09-14T09:20:08.314Z,99066.80
2022-09-14T09:21:21.288Z,99066.80
2022-09-14T09:22:28.317Z,99072.93
2022-09-14T09:23:34.141Z,99069.73
2022-09-14T09:24:43.925Z,99069.73
2022-09-14T09:25:53.505Z,99067.26
2022-09-14T09:26:57.651Z,99066.53
2022-09-14T09:28:04.999Z,99066.91
2022-09-14T09:29:11.522Z,99066.91
2022-09-14T09:30:16.582Z,99068.08
2022-09-14T09:31:23.711Z,99070.81
2022-09-14T09:32:27.846Z,99070.81
2022-09-14T09:33:32.471Z,99064.77
2022-09-14T09:34:36.547Z,99064.77
2022-09-14T09:35:40.691Z,99064.77
2022-09-14T09:36:50.414Z,99064.64
2022-09-14T09:37:54.564Z,99066.55
2022-09-14T09:39:02.952Z,99065.34
2022-09-14T09:40:19.354Z,99065.34
2022-09-14T09:41:29.135Z,99064.73
2022-09-14T09:42:33.256Z,99064.73
2022-09-14T09:43:57.783Z,99065.78
2022-09-14T09:45:04.764Z,99058.80
2022-09-14T09:46:11.913Z,99062.22
2022-09-14T09:47:21.954Z,99065.63
2022-09-14T09:48:27.708Z,99064.45
2022-09-14T09:49:37.566Z,99065.11
2022-09-14T09:50:52.152Z,99065.11
2022-09-14T09:51:56.911Z,99064.22
2022-09-14T09:53:06.047Z,99068.48
2022-09-14T09:54:16.513Z,99067.73
2022-09-14T09:55:23.117Z,99069.95
2022-09-14T09:56:32.619Z,99069.95
2022-09-14T09:57:37.640Z,99067.19
2022-09-14T09:58:41.668Z,99064.33
2022-09-14T09:59:45.771Z,99072.33
2022-09-14T10:01:12.238Z,99069.22
2022-09-14T10:02:32.629Z,99069.10
2022-09-14T10:03:41.047Z,99065.41
2022-09-14T10:05:06.074Z,99065.41
2022-09-14T10:06:13.422Z,99068.65
2022-09-14T10:07:22.320Z,99072.49
2022-09-14T10:08:27.422Z,99072.49
2022-09-14T10:09:31.497Z,99074.23
2022-09-14T10:10:38.867Z,99071.98
2022-09-14T10:11:43.441Z,99072.28
2022-09-14T10:12:54.525Z,99070.27
2022-09-14T10:13:58.946Z,99074.26
2022-09-14T10:15:08.972Z,99074.26
2022-09-14T10:16:18.513Z,99073.48
2022-09-14T10:17:24.024Z,99073.48
2022-09-14T10:18:30.964Z,99073.56
2022-09-14T10:19:35.043Z,99073.56
2022-09-14T10:20:42.263Z,99072.95
2022-09-14T10:22:26.486Z,99071.87
2022-09-14T10:23:32.462Z,99074.38
2022-09-14T10:24:37.734Z,99073.16
2022-09-14T10:25:41.824Z,99080.72
2022-09-14T10:26:45.880Z,99084.70
2022-09-14T10:27:58.732Z,99088.69
2022-09-14T10:29:28.181Z,99078.87
2022-09-14T10:30:43.409Z,99078.87
2022-09-14T10:31:48.759Z,99085.40
2022-09-14T10:33:04.446Z,99075.44
2022-09-14T10:34:14.369Z,99075.44
2022-09-14T10:35:19.415Z,99080.48
2022-09-14T10:36:38.936Z,99080.48
2022-09-14T10:37:57.477Z,99079.94
2022-09-14T10:39:10.486Z,99082.66
2022-09-14T10:40:18.969Z,99079.53
2022-09-14T10:41:42.452Z,99074.34
2022-09-14T10:43:01.101Z,99073.48
2022-09-14T10:44:09.615Z,99073.48
2022-09-14T10:45:22.371Z,99079.36
2022-09-14T10:46:30.206Z,99079.36
2022-09-14T10:47:38.763Z,99070.63
2022-09-14T10:48:46.900Z,99065.20
2022-09-14T10:50:29.310Z,99068.50
2022-09-14T10:51:38.901Z,99069.95
2022-09-14T10:52:54.766Z,99069.95
2022-09-14T10:54:31.578Z,99068.92
2022-09-14T10:55:59.450Z,99068.06
2022-09-14T10:57:12.221Z,99073.08
2022-09-14T10:58:31.137Z,99072.22
2022-09-14T10:59:43.853Z,99072.01
2022-09-14T11:01:09.054Z,99072.01
2022-09-14T11:02:25.162Z,99066.14
2022-09-14T11:03:50.633Z,99070.09
2022-09-14T11:05:09.617Z,99070.09
2022-09-14T11:06:35.162Z,99066.75
2022-09-14T11:07:42.193Z,99073.00
2022-09-14T11:08:51.654Z,99073.00
2022-09-14T11:10:07.376Z,99076.78
2022-09-14T11:11:26.061Z,99076.78
2022-09-14T11:12:51.053Z,99065.11
2022-09-14T11:14:23.621Z,99066.31
2022-09-14T11:15:39.136Z,99068.20
2022-09-14T11:17:10.327Z,99062.53
2022-09-14T11:18:23.371Z,99067.75
2022-09-14T11:19:39.179Z,99062.94
2022-09-14T11:21:07.185Z,99062.94
2022-09-14T11:22:14.148Z,99050.98
2022-09-14T11:23:39.200Z,99049.47
2022-09-14T11:24:47.651Z,99056.13
2022-09-14T11:26:03.379Z,99043.14
2022-09-14T11:27:13.416Z,99042.72
2022-09-14T11:28:29.250Z,99038.94
2022-09-14T11:29:41.990Z,99035.77
2022-09-14T11:30:59.625Z,99046.18
2022-09-14T11:32:24.398Z,99041.98
2022-09-14T11:33:26.859Z,99045.27
2022-09-14T11:34:37.884Z,99045.27
2022-09-14T11:35:46.404Z,99045.44
2022-09-14T11:37:10.775Z,99045.44
2022-09-14T11:38:23.601Z,99039.55
2022-09-14T11:39:30.621Z,99047.11
2022-09-14T11:40:37.767Z,99044.61
2022-09-14T11:41:50.416Z,99044.85
2022-09-14T11:43:03.292Z,99048.39
2022-09-14T11:44:25.379Z,99046.34
2022-09-14T11:45:37.795Z,99046.34
2022-09-14T11:46:44.754Z,99048.23
2022-09-14T11:48:02.040Z,99002.27
2022-09-14T11:49:18.534Z,99041.20
2022-09-14T11:50:23.289Z,99041.20
2022-09-14T11:51:38.878Z,99035.61
2022-09-14T11:52:42.965Z,99035.61
2022-09-14T11:53:47.824Z,99037.66
2022-09-14T11:54:53.018Z,99037.66
2022-09-14T11:55:57.446Z,99033.06
2022-09-14T11:57:03.832Z,99025.53
2022-09-14T11:58:10.190Z,99025.53
2022-09-14T11:59:33.430Z,99027.17
2022-09-14T12:00:48.414Z,99024.47
2022-09-14T12:01:52.244Z,99026.36
2022-09-14T12:03:18.951Z,99026.14
2022-09-14T12:04:23.254Z,99026.27
2022-09-14T12:05:30.444Z,99022.52
2022-09-14T12:06:40.239Z,99022.52
2022-09-14T12:07:47.153Z,99019.81
2022-09-14T12:08:51.200Z,99011.66
2022-09-14T12:09:59.231Z,99014.98
2022-09-14T12:11:12.079Z,99010.59
2022-09-14T12:12:31.829Z,99010.59
2022-09-14T12:13:38.939Z,99016.19
2022-09-14T12:14:43.118Z,99002.77
2022-09-14T12:15:47.361Z,99004.41
2022-09-14T12:18:25.281Z,99004.20
2022-09-14T12:19:30.447Z,99005.78
2022-09-14T12:20:46.692Z,99011.83
2022-09-14T12:21:50.790Z,99005.94
2022-09-14T12:23:06.445Z,99015.73
2022-09-14T12:24:18.078Z,99015.73
2022-09-14T12:25:22.781Z,99016.38
2022-09-14T12:26:31.368Z,99016.98
2022-09-14T12:27:42.501Z,99009.69
2022-09-14T12:28:52.284Z,99009.69
2022-09-14T12:29:56.308Z,99014.53
2022-09-14T12:31:04.890Z,99011.00
2022-09-14T12:32:29.700Z,99016.03
2022-09-14T12:33:36.688Z,99016.03
2022-09-14T12:34:40.784Z,99009.16
2022-09-14T12:35:46.560Z,99009.16
2022-09-14T12:36:54.975Z,99002.91
2022-09-14T12:37:59.313Z,99003.73
2022-09-14T12:39:34.827Z,99005.41
2022-09-14T12:40:38.999Z,99006.09
2022-09-14T12:41:48.744Z,99003.95
2022-09-14T12:42:53.971Z,99006.24
2022-09-14T12:43:57.987Z,99012.70
2022-09-14T12:45:04.972Z,99002.25
2022-09-14T12:46:21.711Z,98996.81
2022-09-14T12:47:31.531Z,98999.28
2022-09-14T12:48:49.139Z,98993.27
2022-09-14T12:50:01.166Z,98990.09
2022-09-14T12:51:06.265Z,98995.35
2022-09-14T12:52:15.165Z,98990.42
2022-09-14T12:53:51.944Z,98993.28
2022-09-14T12:55:11.278Z,98993.28
2022-09-14T12:56:16.540Z,98988.59
2022-09-14T12:57:27.411Z,98989.41
2022-09-14T12:58:43.297Z,98989.41
2022-09-14T13:00:17.282Z,98991.53
2022-09-14T13:01:30.485Z,98991.53
2022-09-14T13:04:26.596Z,98990.81
2022-09-14T13:05:36.112Z,98982.38
2022-09-14T13:06:15.097Z,98984.63
2022-09-14T13:07:22.312Z,98989.45
2022-09-14T13:08:26.389Z,98983.12
2022-09-14T13:09:32.324Z,98984.69
2022-09-14T13:10:39.359Z,98978.19
2022-09-14T13:15:33.317Z,98987.58
2022-09-14T13:16:46.404Z,98987.58
2022-09-14T13:17:58.373Z,98991.80
2022-09-14T13:19:07.165Z,98991.80
2022-09-14T13:20:17.675Z,98991.80
2022-09-14T13:21:24.545Z,98991.80
2022-09-14T13:23:58.712Z,98992.92
2022-09-14T13:26:40.891Z,98978.87
2022-09-14T13:31:33.463Z,98982.88
2022-09-14T13:32:37.587Z,98973.90
2022-09-14T13:33:50.224Z,98985.38
2022-09-14T13:34:55.034Z,98985.38
2022-09-14T13:36:06.989Z,98984.98
2022-09-14T13:37:15.896Z,98980.41